Bookmark and Share
Track history (hours):
 

Steveston Lifeboat

Last reported at 2014-Apr-16 13:33 UTC. Time now 2014-Apr-16 13:39 UTC.
Position N 49°07' W 123°11'.

Length 15 m.

Type: SAR. MMSI: 316012135.

NotesDate/timePositionNaut miles runAvg speedWind from/ knotsBaromVisibWave heightAir tempDewpointWater temp
2014-Apr-16 13:33N 49°07' W 123°11'0 0.0
2014-Apr-16 12:33N 49°07' W 123°11'0 0.0
2014-Apr-16 11:33N 49°07' W 123°11'0 0.0
2014-Apr-16 10:33N 49°07' W 123°11'0 0.0
2014-Apr-16 09:33N 49°07' W 123°11'0 0.0
2014-Apr-16 08:33N 49°07' W 123°11'0 0.0
2014-Apr-16 07:33N 49°07' W 123°11'0 0.0
2014-Apr-16 06:33N 49°07' W 123°11'0 0.0
2014-Apr-16 05:33N 49°07' W 123°11'0 0.0
2014-Apr-16 04:33N 49°07' W 123°11'0 0.0
2014-Apr-16 03:33N 49°07' W 123°11'0 0.0
2014-Apr-16 02:33N 49°07' W 123°11'0 0.0
2014-Apr-16 01:33N 49°07' W 123°11'0 0.0
2014-Apr-16 00:25N 49°07' W 123°11'0 0.0
2014-Apr-15 23:32N 49°07' W 123°11'0 0.0
2014-Apr-15 22:33N 49°07' W 123°11'0 0.0
2014-Apr-15 21:33N 49°07' W 123°11'0 0.0
2014-Apr-15 20:33N 49°07' W 123°11'0 0.0
2014-Apr-15 19:33N 49°07' W 123°11'0 0.0
2014-Apr-15 18:33N 49°07' W 123°11'0 0.0
2014-Apr-15 17:33N 49°07' W 123°11'0 0.0
2014-Apr-15 16:33N 49°07' W 123°11'0 0.0
2014-Apr-15 15:33N 49°07' W 123°11'0 0.0
2014-Apr-15 14:33N 49°07' W 123°11'0 0.0
2014-Apr-15 12:34N 49°07' W 123°11'0 0.0
2014-Apr-15 11:34N 49°07' W 123°11'0 0.0
2014-Apr-15 10:34N 49°07' W 123°11'0 0.0
2014-Apr-15 09:34N 49°07' W 123°11'0 0.0
2014-Apr-15 07:34N 49°07' W 123°11'0 0.0
2014-Apr-15 06:33N 49°07' W 123°11'0 0.0
2014-Apr-15 05:33N 49°07' W 123°11'0 0.0
2014-Apr-15 03:34N 49°07' W 123°11'0 0.0
2014-Apr-15 02:34N 49°07' W 123°11'0 0.0
2014-Apr-15 01:34N 49°07' W 123°11'0 0.0
2014-Apr-15 00:34N 49°07' W 123°11'0 0.0
2014-Apr-14 23:34N 49°07' W 123°11'0 0.0
2014-Apr-14 22:34N 49°07' W 123°11'0 0.0
2014-Apr-14 21:33N 49°07' W 123°11'0 0.0
2014-Apr-14 20:32N 49°07' W 123°11'0 0.0
2014-Apr-14 19:31N 49°07' W 123°11'0 0.0
2014-Apr-14 17:31N 49°07' W 123°11'0 0.0
2014-Apr-14 16:30N 49°07' W 123°11'0 0.0
2014-Apr-14 15:33N 49°07' W 123°11'0 0.0
2014-Apr-14 14:33N 49°07' W 123°11'0 0.0
2014-Apr-14 13:33N 49°07' W 123°11'0 0.0
2014-Apr-14 11:34N 49°07' W 123°11'0 0.0
2014-Apr-14 10:33N 49°07' W 123°11'0 0.0
2014-Apr-14 09:33N 49°07' W 123°11'0 0.0
2014-Apr-14 08:33N 49°07' W 123°11'0 0.0
2014-Apr-14 07:33N 49°07' W 123°11'0 0.0
2014-Apr-14 06:33N 49°07' W 123°11'0 0.0
2014-Apr-14 05:33N 49°07' W 123°11'8 1.2
2014-Apr-13 22:33N 49°05' W 123°23'9 8.6
2014-Apr-13 21:33N 49°01' W 123°35'5 2.6
2014-Apr-13 19:31N 48°56' W 123°37'7 7.0
2014-Apr-13 18:33N 48°59' W 123°46'2 0.9
2014-Apr-13 16:28N 48°60' W 123°49'0 0.0
2014-Apr-13 15:28N 48°60' W 123°49'0 0.0
2014-Apr-13 14:28N 48°60' W 123°49'0 0.0
2014-Apr-13 13:10N 48°60' W 123°49'0 0.0
2014-Apr-13 12:28N 48°60' W 123°49'0 0.0
2014-Apr-13 11:28N 48°60' W 123°49'0 0.0
2014-Apr-13 10:28N 48°60' W 123°49'0 0.0
2014-Apr-13 09:28N 48°60' W 123°49'0 0.0
2014-Apr-13 08:16N 48°60' W 123°49'0 0.0
2014-Apr-13 07:16N 48°60' W 123°49'0 0.0
2014-Apr-13 06:28N 48°60' W 123°49'0 0.0
2014-Apr-13 05:28N 48°60' W 123°49'0 0.0
2014-Apr-13 04:28N 48°60' W 123°49'0 0.0
2014-Apr-13 03:22N 48°60' W 123°49'0 0.0
2014-Apr-13 02:28N 48°60' W 123°49'0 0.0
2014-Apr-13 01:22N 48°60' W 123°49'0 0.0
2014-Apr-13 00:28N 48°60' W 123°49'0 0.0
2014-Apr-12 23:28N 48°60' W 123°49'1 1.0
2014-Apr-12 22:33N 48°59' W 123°48'8 8.0
2014-Apr-12 21:33N 48°55' W 123°37'1 0.8
2014-Apr-12 20:10N 48°56' W 123°38'0 0.4
2014-Apr-12 19:32N 48°57' W 123°38'5 5.1
2014-Apr-12 18:33N 49°01' W 123°35'9 8.9
2014-Apr-12 17:34N 49°05' W 123°23'  

Dump ship's entire track history

sailing weather and tide predictions

Steveston Lifeboat — VOQQ — position and weather